Time;durP1;ratioP1;P1;durP2;ratioP2;P2;SDS_P1;SDS_P2;PMS_P1;PMS_P2;Temp;Humidity;BMP_temperature;BMP_pressure;BME280_temperature;BME280_humidity;BME280_pressure;Samples;Min_cycle;Max_cycle;Signal;HPM_P1;HPM_P2
2022/05/15 00:02:43;;;;;;;9.93;3.90;;;19.90;55.60;;;;;;5012303;28;93219;-60
2022/05/15 00:05:09;;;;;;;8.40;4.40;;;19.90;55.60;;;;;;5011938;28;92844;-60
2022/05/15 00:07:35;;;;;;;8.75;4.05;;;19.90;55.60;;;;;;5009632;28;92875;-60
2022/05/15 00:10:02;;;;;;;9.10;4.30;;;20.00;55.60;;;;;;5011771;28;93013;-60
2022/05/15 00:12:28;;;;;;;9.35;3.90;;;19.90;55.50;;;;;;5009486;28;95258;-60
2022/05/15 00:14:53;;;;;;;9.77;4.65;;;20.00;55.60;;;;;;5011508;28;95601;-61
2022/05/15 00:17:19;;;;;;;10.10;4.05;;;19.90;55.50;;;;;;5012008;28;92477;-60
2022/05/15 00:19:45;;;;;;;8.77;4.43;;;19.90;55.50;;;;;;5012150;28;92571;-60
2022/05/15 00:22:11;;;;;;;9.93;4.25;;;19.90;55.40;;;;;;5011262;28;93252;-60
2022/05/15 00:24:37;;;;;;;9.07;4.10;;;19.90;55.50;;;;;;5012053;28;92755;-60
2022/05/15 00:27:03;;;;;;;9.18;4.60;;;19.90;55.50;;;;;;5012047;28;92867;-60
2022/05/15 00:29:29;;;;;;;10.38;4.18;;;19.90;55.50;;;;;;5011547;28;92278;-61
2022/05/15 00:31:55;;;;;;;9.45;4.47;;;19.90;55.50;;;;;;4993597;28;93176;-60
2022/05/15 00:34:21;;;;;;;8.52;4.05;;;19.90;55.50;;;;;;4992478;28;93994;-61
2022/05/15 00:36:47;;;;;;;11.15;4.40;;;19.90;55.40;;;;;;5010118;28;94887;-60
2022/05/15 00:39:12;;;;;;;8.80;3.95;;;19.90;55.40;;;;;;5011550;28;92989;-61
2022/05/15 00:41:39;;;;;;;8.40;3.90;;;19.90;55.40;;;;;;5011054;28;93112;-60
2022/05/15 00:44:07;;;;;;;10.45;4.20;;;19.90;55.40;;;;;;5011531;28;92853;-60
2022/05/15 00:46:36;;;;;;;8.63;4.05;;;19.90;55.40;;;;;;5011250;28;92475;-60
2022/05/15 00:49:05;;;;;;;8.93;4.40;;;19.90;55.40;;;;;;5010095;28;93005;-60
2022/05/15 00:51:59;;;;;;;9.45;4.22;;;19.90;55.40;;;;;;4993592;28;93163;-61
2022/05/15 00:54:47;;;;;;;7.90;3.63;;;19.80;55.30;;;;;;5007762;28;92921;-61
2022/05/15 00:57:18;;;;;;;9.80;4.60;;;19.90;55.40;;;;;;5010622;28;92517;-60
2022/05/15 00:59:52;;;;;;;9.13;3.78;;;19.90;55.50;;;;;;5011035;28;92922;-61
2022/05/15 01:02:18;;;;;;;9.73;4.20;;;19.90;55.40;;;;;;5007768;28;98033;-60
2022/05/15 01:04:46;;;;;;;10.45;4.75;;;19.90;55.40;;;;;;4975928;28;96345;-60
2022/05/15 01:07:12;;;;;;;9.45;4.32;;;19.80;55.30;;;;;;5010144;28;92577;-61
2022/05/15 01:09:38;;;;;;;9.55;3.97;;;19.80;55.40;;;;;;5010470;28;92860;-60
2022/05/15 01:12:05;;;;;;;10.38;4.25;;;19.90;55.40;;;;;;4992414;28;93726;-61
2022/05/15 01:14:31;;;;;;;8.82;3.80;;;19.80;55.30;;;;;;5011053;28;92759;-61
2022/05/15 01:16:57;;;;;;;10.13;4.70;;;19.80;55.30;;;;;;5011367;28;93100;-61
2022/05/15 01:19:31;;;;;;;9.60;4.10;;;19.80;55.20;;;;;;5011322;28;92396;-61
2022/05/15 01:21:58;;;;;;;8.77;3.92;;;19.80;55.20;;;;;;4992190;28;95715;-61
2022/05/15 01:24:25;;;;;;;7.70;3.42;;;19.80;55.30;;;;;;5008840;28;92868;-60
2022/05/15 01:26:51;;;;;;;9.18;4.07;;;19.80;55.30;;;;;;5009820;28;95277;-61
2022/05/15 01:29:17;;;;;;;8.57;3.90;;;19.80;55.30;;;;;;5010869;28;92993;-60
2022/05/15 01:31:47;;;;;;;7.97;3.88;;;19.80;55.30;;;;;;5010715;28;93147;-61
2022/05/15 01:34:12;;;;;;;9.27;3.95;;;19.80;55.30;;;;;;5011205;28;92769;-60
2022/05/15 01:36:38;;;;;;;9.20;4.18;;;19.80;55.20;;;;;;5011374;28;93183;-61
2022/05/15 01:39:05;;;;;;;8.02;3.75;;;19.80;55.20;;;;;;5011168;28;92524;-60
2022/05/15 01:41:31;;;;;;;8.40;3.53;;;19.80;55.30;;;;;;5010928;28;93504;-61
2022/05/15 01:43:57;;;;;;;9.27;3.97;;;19.80;55.30;;;;;;5010665;28;92523;-60
2022/05/15 01:46:27;;;;;;;9.63;3.97;;;19.80;55.20;;;;;;5008888;28;92712;-61
2022/05/15 01:48:54;;;;;;;9.95;4.10;;;19.80;55.20;;;;;;5010878;28;92738;-61
2022/05/15 01:51:21;;;;;;;8.93;4.13;;;19.80;55.20;;;;;;5007219;28;95891;-61
2022/05/15 01:53:47;;;;;;;8.90;3.92;;;19.80;55.20;;;;;;5010004;28;95181;-61
2022/05/15 01:56:13;;;;;;;9.05;4.47;;;19.80;55.20;;;;;;5010403;28;92849;-61
2022/05/15 01:58:39;;;;;;;8.10;3.97;;;19.80;55.20;;;;;;4992351;28;93168;-61
2022/05/15 02:01:05;;;;;;;10.50;4.38;;;19.80;55.10;;;;;;4992142;28;93708;-60
2022/05/15 02:03:31;;;;;;;8.57;4.03;;;19.70;55.10;;;;;;5010064;28;92845;-61
2022/05/15 02:05:56;;;;;;;7.13;3.60;;;19.70;55.20;;;;;;5010300;28;92551;-61
2022/05/15 02:08:22;;;;;;;10.40;4.13;;;19.70;55.10;;;;;;5010276;28;91681;-61
2022/05/15 02:10:48;;;;;;;8.02;3.83;;;19.70;55.10;;;;;;5010172;28;93246;-61
2022/05/15 02:13:13;;;;;;;8.52;3.85;;;19.80;55.10;;;;;;5009408;28;92956;-61
2022/05/15 02:15:39;;;;;;;8.73;4.28;;;19.80;55.10;;;;;;5007000;28;95749;-60
2022/05/15 02:18:04;;;;;;;8.25;3.97;;;19.70;55.10;;;;;;5007933;28;92673;-60
2022/05/15 02:20:33;;;;;;;8.95;4.00;;;19.70;55.10;;;;;;5008918;28;93865;-61
2022/05/15 02:22:59;;;;;;;8.60;3.50;;;19.70;55.10;;;;;;5010011;28;93142;-61
2022/05/15 02:25:27;;;;;;;8.55;3.83;;;19.70;55.10;;;;;;5009740;28;92512;-60
2022/05/15 02:27:53;;;;;;;8.02;3.45;;;19.70;55.10;;;;;;5010266;28;93315;-61
2022/05/15 02:30:20;;;;;;;7.85;3.80;;;19.70;55.10;;;;;;5007736;28;93492;-61
2022/05/15 02:32:46;;;;;;;8.95;3.80;;;19.70;55.00;;;;;;5010305;28;92637;-61
2022/05/15 02:35:12;;;;;;;7.50;3.70;;;19.70;55.10;;;;;;4991978;28;92546;-61
2022/05/15 02:37:38;;;;;;;8.77;3.92;;;19.70;55.10;;;;;;5009480;28;92752;-61
2022/05/15 02:40:05;;;;;;;10.18;3.83;;;19.70;55.10;;;;;;4990599;28;95336;-61
2022/05/15 02:42:31;;;;;;;8.70;3.90;;;19.60;55.00;;;;;;5008883;28;95830;-61
2022/05/15 02:44:57;;;;;;;8.85;3.70;;;19.60;55.00;;;;;;5009661;28;92447;-61
2022/05/15 02:47:24;;;;;;;9.20;3.60;;;19.70;55.10;;;;;;5008158;28;93343;-61
2022/05/15 02:52:34;;;;;;;9.27;3.83;;;19.70;55.10;;;;;;5008397;28;92932;-61
2022/05/15 02:55:00;;;;;;;7.53;3.85;;;19.60;55.00;;;;;;5009848;28;93130;-61
2022/05/15 02:57:26;;;;;;;9.10;3.53;;;19.60;55.00;;;;;;5010001;28;91811;-61
2022/05/15 02:59:52;;;;;;;9.13;3.92;;;19.70;55.10;;;;;;4974550;28;94405;-61
2022/05/15 03:02:17;;;;;;;9.27;4.05;;;19.60;55.00;;;;;;5009268;28;93170;-61
2022/05/15 03:04:43;;;;;;;11.05;4.45;;;19.60;55.00;;;;;;5008466;28;95372;-61
2022/05/15 03:07:09;;;;;;;7.85;4.05;;;19.60;55.00;;;;;;5009544;28;92695;-61
2022/05/15 03:09:35;;;;;;;11.55;4.32;;;19.60;55.00;;;;;;5009932;28;92961;-61
2022/05/15 03:12:00;;;;;;;9.57;3.95;;;19.60;54.90;;;;;;5009532;28;92965;-60
2022/05/15 03:14:26;;;;;;;7.78;3.78;;;19.60;54.90;;;;;;5009057;28;92508;-60
2022/05/15 03:16:52;;;;;;;7.70;3.85;;;19.60;54.90;;;;;;4990646;28;92590;-61
2022/05/15 03:19:17;;;;;;;9.48;4.22;;;19.60;54.90;;;;;;5009626;28;93069;-60
2022/05/15 03:21:43;;;;;;;8.48;3.88;;;19.60;54.90;;;;;;5009580;28;92728;-61
2022/05/15 03:24:11;;;;;;;8.48;3.63;;;19.60;54.90;;;;;;5009319;28;92832;-61
2022/05/15 03:26:43;;;;;;;10.90;4.03;;;19.60;54.90;;;;;;5009199;28;92521;-60
2022/05/15 03:29:11;;;;;;;7.82;3.47;;;19.60;55.00;;;;;;5008427;28;95638;-61
2022/05/15 03:31:39;;;;;;;8.68;4.07;;;19.60;54.90;;;;;;5011817;28;95060;-60
2022/05/15 03:34:06;;;;;;;9.05;4.00;;;19.60;55.00;;;;;;5012801;28;92498;-60
2022/05/15 03:36:32;;;;;;;8.55;3.70;;;19.60;54.90;;;;;;5012070;28;92521;-61
2022/05/15 03:38:58;;;;;;;9.63;3.97;;;19.60;55.00;;;;;;5012682;28;92758;-60
2022/05/15 03:41:23;;;;;;;9.70;4.00;;;19.60;54.90;;;;;;5011907;28;92847;-61
2022/05/15 03:43:49;;;;;;;8.27;3.90;;;19.60;54.90;;;;;;5012009;28;92953;-61
2022/05/15 03:46:14;;;;;;;7.63;3.15;;;19.60;54.90;;;;;;4994240;28;91797;-60
2022/05/15 03:48:40;;;;;;;9.80;3.42;;;19.50;54.80;;;;;;5011900;28;93424;-61
2022/05/15 03:51:06;;;;;;;7.90;3.50;;;19.50;54.90;;;;;;5012311;28;92839;-60
2022/05/15 03:53:32;;;;;;;8.13;3.90;;;19.60;54.90;;;;;;5010072;28;95223;-60
2022/05/15 03:55:59;;;;;;;10.50;3.90;;;19.60;54.80;;;;;;5012142;28;92582;-61
2022/05/15 03:58:30;;;;;;;7.80;3.80;;;19.50;54.70;;;;;;5012156;28;92990;-61
2022/05/15 04:00:55;;;;;;;7.72;3.72;;;19.60;54.70;;;;;;4994145;28;93733;-61
2022/05/15 04:03:21;;;;;;;10.07;3.92;;;19.50;54.70;;;;;;5011818;28;92627;-61
2022/05/15 04:05:48;;;;;;;7.95;3.65;;;19.50;54.80;;;;;;5011850;28;92579;-61
2022/05/15 04:08:14;;;;;;;7.30;3.60;;;19.50;54.80;;;;;;5011507;28;93333;-60
2022/05/15 04:10:39;;;;;;;9.20;3.90;;;19.50;54.70;;;;;;5012225;28;92627;-60
2022/05/15 04:13:06;;;;;;;7.43;3.67;;;19.50;54.80;;;;;;4994112;28;92983;-60
2022/05/15 04:15:32;;;;;;;8.30;3.53;;;19.50;54.70;;;;;;5011301;28;92526;-61
2022/05/15 04:17:58;;;;;;;7.00;3.10;;;19.50;54.70;;;;;;5010769;28;95407;-60
2022/05/15 04:20:27;;;;;;;8.45;3.60;;;19.50;54.70;;;;;;4993485;28;95403;-61
2022/05/15 04:22:52;;;;;;;8.68;3.42;;;19.50;54.70;;;;;;5012023;28;92515;-60
2022/05/15 04:25:19;;;;;;;6.78;3.60;;;19.50;54.70;;;;;;5010596;28;92992;-61
2022/05/15 04:27:45;;;;;;;8.90;4.00;;;19.50;54.80;;;;;;4992637;28;92947;-61
2022/05/15 04:30:15;;;;;;;8.35;3.80;;;19.50;54.70;;;;;;5011531;28;93284;-61
2022/05/15 04:32:41;;;;;;;6.85;3.90;;;19.50;54.60;;;;;;4993489;28;92843;-61
2022/05/15 04:35:08;;;;;;;9.23;3.58;;;19.50;54.60;;;;;;5011855;28;92305;-61
2022/05/15 04:37:34;;;;;;;8.32;3.50;;;19.50;54.70;;;;;;5010526;28;93104;-60
2022/05/15 04:40:00;;;;;;;8.63;3.92;;;19.50;54.70;;;;;;5011196;28;93021;-61
2022/05/15 04:42:26;;;;;;;8.15;4.07;;;19.50;54.70;;;;;;5009134;28;95107;-61
2022/05/15 04:44:52;;;;;;;8.98;3.97;;;19.50;54.60;;;;;;4993397;28;92584;-60
2022/05/15 04:47:18;;;;;;;8.07;3.80;;;19.50;54.70;;;;;;5011114;28;93041;-60
2022/05/15 04:49:43;;;;;;;7.95;3.50;;;19.50;54.70;;;;;;5011680;28;93391;-61
2022/05/15 04:52:10;;;;;;;7.80;3.83;;;19.50;54.60;;;;;;5011746;28;92490;-61
2022/05/15 04:54:36;;;;;;;7.53;3.58;;;19.50;54.50;;;;;;5011039;28;92575;-61
2022/05/15 04:57:01;;;;;;;9.13;3.83;;;19.50;54.60;;;;;;5010900;28;93370;-61
2022/05/15 04:59:27;;;;;;;9.07;3.92;;;19.50;54.60;;;;;;5011586;28;92628;-61
2022/05/15 05:01:53;;;;;;;8.00;3.60;;;19.50;54.60;;;;;;5010933;28;93179;-60
2022/05/15 05:04:18;;;;;;;10.80;4.10;;;19.40;54.50;;;;;;5011265;28;93576;-60
2022/05/15 05:06:44;;;;;;;9.32;3.67;;;19.50;54.60;;;;;;5008904;28;95474;-61
2022/05/15 05:09:11;;;;;;;7.35;3.67;;;19.50;54.60;;;;;;4992295;28;97030;-61
2022/05/15 05:11:37;;;;;;;7.78;3.70;;;19.50;54.60;;;;;;5010717;28;92749;-60
2022/05/15 05:14:03;;;;;;;9.40;3.30;;;19.50;54.50;;;;;;5011295;28;93002;-61
2022/05/15 05:16:30;;;;;;;7.15;3.80;;;19.50;54.60;;;;;;5008549;28;93621;-61
2022/05/15 05:18:55;;;;;;;9.52;3.80;;;19.50;54.70;;;;;;5011159;28;92495;-61
2022/05/15 05:21:21;;;;;;;7.90;3.42;;;19.50;54.60;;;;;;4992781;28;92952;-60
2022/05/15 05:23:47;;;;;;;8.30;3.72;;;19.50;54.70;;;;;;5011159;28;91766;-60
2022/05/15 05:26:12;;;;;;;8.93;3.63;;;19.40;54.50;;;;;;5009616;28;93182;-61
2022/05/15 05:28:38;;;;;;;9.02;3.67;;;19.40;54.60;;;;;;5011126;28;92881;-61
2022/05/15 05:31:04;;;;;;;6.60;3.50;;;19.40;54.60;;;;;;4992122;28;94820;-60
2022/05/15 05:33:30;;;;;;;9.13;3.80;;;19.50;54.60;;;;;;5010181;28;92731;-60
2022/05/15 05:35:55;;;;;;;7.75;3.67;;;19.40;54.50;;;;;;5011364;28;92569;-61
2022/05/15 05:38:21;;;;;;;8.00;3.72;;;19.50;54.60;;;;;;4993099;28;93945;-61
2022/05/15 05:40:46;;;;;;;8.30;3.83;;;19.50;54.60;;;;;;5011263;28;92549;-61
2022/05/15 05:43:12;;;;;;;8.43;3.65;;;19.50;54.60;;;;;;5011386;28;92620;-60
2022/05/15 05:45:38;;;;;;;7.88;3.38;;;19.50;54.60;;;;;;5010207;28;93267;-61
2022/05/15 05:48:04;;;;;;;7.68;3.35;;;19.50;54.60;;;;;;5011168;28;92756;-61
2022/05/15 05:50:30;;;;;;;8.98;3.65;;;19.50;54.70;;;;;;5009886;28;92860;-61
2022/05/15 05:52:57;;;;;;;9.35;3.40;;;19.50;54.70;;;;;;4991206;28;93127;-60
2022/05/15 05:55:24;;;;;;;7.32;3.65;;;19.40;54.60;;;;;;5007262;28;96152;-60
2022/05/15 05:57:50;;;;;;;8.73;4.05;;;19.40;54.60;;;;;;5009782;28;94968;-60
2022/05/15 06:00:23;;;;;;;8.10;3.58;;;19.50;54.70;;;;;;5010362;28;92502;-60
2022/05/15 06:02:49;;;;;;;7.63;3.70;;;19.50;54.60;;;;;;5009907;28;92501;-61
2022/05/15 06:05:15;;;;;;;7.95;3.70;;;19.40;54.70;;;;;;5009606;28;93745;-61
2022/05/15 06:07:41;;;;;;;7.28;3.58;;;19.50;54.60;;;;;;5009527;28;92465;-61
2022/05/15 06:10:08;;;;;;;6.55;3.42;;;19.40;54.60;;;;;;4992093;28;92559;-61
2022/05/15 06:12:34;;;;;;;7.40;3.22;;;19.50;54.60;;;;;;5008989;28;91917;-61
2022/05/15 06:14:59;;;;;;;10.48;3.75;;;19.50;54.70;;;;;;5009539;28;92973;-61
2022/05/15 06:17:27;;;;;;;8.90;3.90;;;19.50;54.70;;;;;;5009605;28;99751;-60
2022/05/15 06:19:54;;;;;;;8.00;3.40;;;19.50;54.70;;;;;;5008208;28;95374;-62
2022/05/15 06:22:20;;;;;;;8.55;3.72;;;19.50;54.60;;;;;;5009993;28;92499;-61
2022/05/15 06:24:45;;;;;;;8.93;3.33;;;19.50;54.60;;;;;;5009667;28;93219;-61
2022/05/15 06:27:11;;;;;;;9.18;4.00;;;19.50;54.50;;;;;;5010229;28;92626;-61
2022/05/15 06:29:38;;;;;;;6.88;3.30;;;19.50;54.50;;;;;;5009838;28;92799;-61
2022/05/15 06:32:05;;;;;;;8.13;3.95;;;19.50;54.50;;;;;;5009533;28;92798;-61
2022/05/15 06:34:31;;;;;;;7.55;3.75;;;19.50;54.50;;;;;;5009341;28;93501;-61
2022/05/15 06:36:57;;;;;;;6.63;3.17;;;19.60;54.50;;;;;;5010031;28;92689;-61
2022/05/15 06:39:22;;;;;;;7.47;3.45;;;19.60;54.50;;;;;;4991195;28;92465;-61
2022/05/15 06:41:50;;;;;;;7.85;3.70;;;19.60;54.50;;;;;;5009573;28;92887;-61
2022/05/15 06:44:17;;;;;;;8.80;3.95;;;19.60;54.50;;;;;;5008348;28;95348;-61
2022/05/15 06:46:43;;;;;;;7.60;3.50;;;19.60;54.50;;;;;;4991342;28;95527;-60
2022/05/15 06:49:09;;;;;;;8.70;3.53;;;19.60;54.40;;;;;;5009812;28;93797;-61
2022/05/15 06:51:34;;;;;;;7.90;3.60;;;19.60;54.40;;;;;;5009140;28;93745;-61
2022/05/15 06:54:00;;;;;;;8.02;3.70;;;19.70;54.50;;;;;;5009860;28;93098;-61
2022/05/15 06:59:10;;;;;;;8.05;3.50;;;19.70;54.40;;;;;;5009400;28;92533;-61
2022/05/15 07:01:35;;;;;;;8.10;3.42;;;19.70;54.50;;;;;;5009705;28;92426;-61
2022/05/15 07:04:01;;;;;;;8.95;3.65;;;19.70;54.40;;;;;;4991809;28;92952;-60
2022/05/15 07:06:26;;;;;;;7.40;3.70;;;19.70;54.40;;;;;;5012387;28;93276;-60
2022/05/15 07:08:52;;;;;;;8.27;3.40;;;19.70;54.40;;;;;;4994014;28;94934;-61
2022/05/15 07:11:18;;;;;;;9.35;3.75;;;19.70;54.40;;;;;;5013478;28;92983;-61
2022/05/15 07:13:43;;;;;;;7.53;3.40;;;19.70;54.40;;;;;;5012644;28;93301;-61
2022/05/15 07:16:10;;;;;;;6.45;2.90;;;19.80;54.50;;;;;;5013233;28;92640;-61
2022/05/15 07:18:37;;;;;;;7.55;3.28;;;19.70;54.50;;;;;;5013103;28;92497;-60
2022/05/15 07:21:03;;;;;;;11.20;3.78;;;19.70;54.50;;;;;;5013057;28;92742;-61
2022/05/15 07:23:29;;;;;;;11.57;4.00;;;19.70;54.50;;;;;;5011727;28;96123;-60
2022/05/15 07:25:55;;;;;;;14.10;4.65;;;19.80;54.70;;;;;;5012241;28;92605;-60
2022/05/15 07:28:21;;;;;;;11.02;4.00;;;19.80;54.90;;;;;;5012703;28;92975;-61
2022/05/15 07:30:48;;;;;;;13.88;4.43;;;19.80;55.00;;;;;;5012588;28;93095;-60
2022/05/15 07:33:21;;;;;;;10.65;3.88;;;19.80;55.10;;;;;;5010740;28;95169;-60
2022/05/15 07:35:46;;;;;;;9.10;3.90;;;19.80;55.40;;;;;;5011900;28;95239;-61
2022/05/15 07:38:12;;;;;;;16.10;4.53;;;19.80;55.60;;;;;;5012572;28;92688;-61
2022/05/15 07:40:37;;;;;;;9.95;3.78;;;19.80;55.80;;;;;;5012831;28;92554;-60
2022/05/15 07:43:07;;;;;;;11.88;4.40;;;19.90;55.90;;;;;;5012151;28;93012;-61
2022/05/15 07:45:33;;;;;;;11.70;4.18;;;19.90;55.90;;;;;;5011824;28;92918;-61
2022/05/15 07:47:59;;;;;;;12.23;4.05;;;19.90;55.90;;;;;;4992532;28;92671;-61
2022/05/15 07:50:25;;;;;;;13.43;4.13;;;19.90;55.90;;;;;;5008802;28;91784;-61
2022/05/15 07:52:50;;;;;;;12.93;3.70;;;19.90;55.90;;;;;;5010880;28;93014;-61
2022/05/15 07:55:16;;;;;;;10.07;3.65;;;19.90;55.90;;;;;;5010289;28;92903;-61
2022/05/15 07:57:42;;;;;;;12.38;4.05;;;19.90;55.90;;;;;;5009296;28;94979;-61
2022/05/15 08:00:11;;;;;;;9.35;3.50;;;19.90;55.90;;;;;;5011552;28;93126;-59
2022/05/15 08:02:37;;;;;;;10.63;3.75;;;19.90;55.90;;;;;;5011673;28;93392;-59
2022/05/15 08:08:00;;;;;;;9.48;3.45;;;19.90;55.90;;;;;;5009975;28;92799;-60
2022/05/15 08:10:27;;;;;;;9.38;3.85;;;19.90;55.90;;;;;;5011013;28;92859;-60
2022/05/15 08:12:52;;;;;;;12.55;3.90;;;19.90;56.00;;;;;;5011669;28;93002;-60
2022/05/15 08:15:18;;;;;;;8.88;3.63;;;19.90;56.00;;;;;;5012184;28;92592;-60
2022/05/15 08:17:44;;;;;;;8.55;3.65;;;19.90;55.90;;;;;;5011749;28;93032;-60
2022/05/15 08:25:40;;;;;;;8.20;3.45;;;19.90;56.00;;;;;;5012199;28;95231;-60
2022/05/15 08:28:05;;;;;;;7.15;3.15;;;19.80;55.90;;;;;;5011846;28;92523;-60
2022/05/15 08:30:31;;;;;;;9.48;3.40;;;19.90;56.00;;;;;;5011042;28;92445;-60
2022/05/15 08:32:57;;;;;;;10.00;3.72;;;19.90;56.00;;;;;;5011171;28;93268;-60
2022/05/15 08:35:22;;;;;;;7.53;3.17;;;19.90;56.00;;;;;;4992609;28;102094;-60
2022/05/15 08:37:48;;;;;;;8.38;3.45;;;19.90;56.10;;;;;;5011177;28;92559;-59
2022/05/15 08:40:14;;;;;;;8.23;3.40;;;19.90;56.00;;;;;;4993445;28;91995;-60
2022/05/15 08:42:57;;;;;;;10.93;4.00;;;19.90;56.10;;;;;;5010616;28;93524;-59
2022/05/15 08:45:36;;;;;;;5.45;2.80;;;19.90;56.00;;;;;;5010996;28;92721;-60
2022/05/15 08:48:06;;;;;;;8.32;3.28;;;19.90;56.10;;;;;;5009896;28;95043;-60
2022/05/15 08:50:43;;;;;;;10.48;3.35;;;19.90;56.10;;;;;;5011131;28;92583;-60
2022/05/15 08:53:19;;;;;;;7.97;3.15;;;19.90;56.10;;;;;;5011534;28;93473;-60
2022/05/15 08:55:51;;;;;;;8.13;3.22;;;19.90;56.10;;;;;;5011154;28;93389;-60
2022/05/15 08:58:35;;;;;;;9.07;3.05;;;19.90;56.10;;;;;;5011098;28;93032;-60
2022/05/15 09:01:05;;;;;;;5.93;3.00;;;19.90;56.10;;;;;;5011414;28;92472;-60
2022/05/15 09:03:35;;;;;;;9.10;3.83;;;19.90;56.10;;;;;;4992223;28;95908;-60
2022/05/15 09:06:22;;;;;;;7.60;3.22;;;19.90;56.10;;;;;;4992911;28;95411;-60
2022/05/15 09:09:36;;;;;;;7.65;3.00;;;19.90;56.00;;;;;;4992298;28;93160;-60
2022/05/15 09:12:14;;;;;;;6.68;2.80;;;19.90;56.00;;;;;;4993229;28;93057;-59
2022/05/15 09:14:58;;;;;;;9.23;3.38;;;19.90;56.10;;;;;;5008805;28;95989;-60
2022/05/15 09:17:51;;;;;;;7.15;3.35;;;19.90;56.00;;;;;;5010458;28;95181;-60
2022/05/15 09:20:41;;;;;;;6.35;2.80;;;19.90;56.10;;;;;;5010648;28;92652;-60
2022/05/15 09:23:19;;;;;;;7.47;3.20;;;19.90;56.10;;;;;;5010351;28;93351;-59
2022/05/15 09:25:54;;;;;;;5.72;2.92;;;19.90;56.00;;;;;;5008927;28;93314;-59
2022/05/15 09:28:20;;;;;;;6.80;2.80;;;19.90;56.10;;;;;;5009422;28;92783;-60
2022/05/15 09:30:48;;;;;;;7.07;3.10;;;19.90;56.00;;;;;;5009892;28;93121;-60
2022/05/15 09:33:36;;;;;;;8.25;3.45;;;19.90;56.00;;;;;;4992260;28;92247;-60
2022/05/15 09:36:44;;;;;;;6.70;3.30;;;19.90;55.90;;;;;;5010005;28;93573;-60
2022/05/15 09:39:26;;;;;;;9.55;3.45;;;20.00;56.00;;;;;;4927862;28;92694;-61
2022/05/15 09:44:49;;;;;;;7.15;3.03;;;19.90;56.00;;;;;;4994503;28;92552;-60
2022/05/15 09:47:20;;;;;;;5.78;3.00;;;20.00;56.00;;;;;;5010239;28;93073;-59
2022/05/15 09:49:46;;;;;;;7.53;3.08;;;20.00;56.10;;;;;;5009172;28;93654;-60
2022/05/15 09:52:19;;;;;;;4.80;3.20;;;20.00;56.00;;;;;;5010464;28;92887;-60
2022/05/15 09:54:47;;;;;;;6.53;2.38;;;20.00;56.00;;;;;;5009914;28;92501;-60
2022/05/15 09:57:27;;;;;;;6.22;2.88;;;20.00;56.00;;;;;;5007391;28;96237;-60
2022/05/15 10:00:00;;;;;;;6.15;3.22;;;20.00;55.90;;;;;;5010448;28;92445;-61
2022/05/15 10:02:40;;;;;;;5.15;2.47;;;20.10;55.90;;;;;;5009759;28;92590;-60
2022/05/15 10:05:29;;;;;;;5.85;2.60;;;20.00;55.80;;;;;;5010162;28;92851;-60
2022/05/15 10:08:05;;;;;;;6.63;3.10;;;20.10;55.90;;;;;;5007450;28;96146;-61
2022/05/15 10:10:43;;;;;;;7.80;3.20;;;20.10;55.90;;;;;;5009621;28;95014;-60
2022/05/15 10:13:23;;;;;;;8.45;3.08;;;20.10;55.80;;;;;;5010255;28;92502;-60
2022/05/15 10:15:50;;;;;;;6.28;2.88;;;20.20;56.00;;;;;;5009955;28;92972;-59
2022/05/15 10:18:24;;;;;;;7.13;3.15;;;20.20;56.30;;;;;;5009549;28;93100;-60
2022/05/15 10:20:51;;;;;;;7.65;2.63;;;20.20;56.50;;;;;;4991177;28;94254;-60
2022/05/15 10:23:23;;;;;;;7.60;3.00;;;20.20;56.60;;;;;;5009242;28;92443;-60
2022/05/15 10:25:48;;;;;;;17.13;5.53;;;20.30;56.70;;;;;;5009668;28;92645;-60
2022/05/15 10:28:22;;;;;;;25.15;9.35;;;20.30;56.90;;;;;;5009921;28;93507;-60
2022/05/15 10:31:09;;;;;;;18.25;6.50;;;20.30;57.30;;;;;;5009738;28;93087;-60
2022/05/15 10:33:40;;;;;;;12.70;5.55;;;20.40;57.60;;;;;;5007907;28;95259;-60
2022/05/15 10:36:27;;;;;;;16.00;5.78;;;20.40;57.60;;;;;;4991387;28;92570;-62
2022/05/15 10:38:58;;;;;;;15.05;5.68;;;20.40;57.40;;;;;;5009260;28;92623;-59
2022/05/15 10:41:50;;;;;;;15.20;4.97;;;20.40;56.90;;;;;;4993422;28;95475;-60
2022/05/15 10:44:36;;;;;;;13.95;5.18;;;20.40;56.80;;;;;;5012422;28;92692;-61
2022/05/15 10:47:08;;;;;;;14.73;5.38;;;20.40;56.10;;;;;;5012827;28;92530;-60
2022/05/15 10:49:58;;;;;;;17.20;4.43;;;20.50;54.90;;;;;;4994356;28;93396;-61
2022/05/15 10:52:48;;;;;;;17.40;5.05;;;20.40;54.60;;;;;;5013210;28;93038;-60
2022/05/15 10:58:32;;;;;;;16.13;5.22;;;20.50;53.80;;;;;;5012288;28;92734;-60
2022/05/15 11:01:12;;;;;;;12.55;4.30;;;20.50;53.00;;;;;;5011605;28;95663;-60
2022/05/15 11:03:59;;;;;;;14.73;4.30;;;20.50;52.20;;;;;;5012138;28;94163;-60
2022/05/15 11:06:33;;;;;;;16.27;4.85;;;20.50;52.50;;;;;;5012361;28;92966;-60
2022/05/15 11:09:16;;;;;;;12.38;4.35;;;20.50;52.30;;;;;;4994771;28;92928;-60
2022/05/15 11:11:53;;;;;;;16.00;4.03;;;20.60;51.50;;;;;;5012065;28;93272;-60
2022/05/15 11:14:25;;;;;;;13.68;4.57;;;20.60;51.70;;;;;;4994191;28;95578;-60
2022/05/15 11:17:20;;;;;;;15.60;4.68;;;20.60;51.30;;;;;;5012560;28;92501;-61
2022/05/15 11:19:46;;;;;;;17.90;4.72;;;20.60;51.40;;;;;;5012241;28;92146;-61
2022/05/15 11:22:25;;;;;;;14.65;4.13;;;20.60;51.60;;;;;;5012510;28;92877;-61
2022/05/15 11:24:55;;;;;;;13.73;4.50;;;20.60;51.50;;;;;;5012436;28;92692;-60
2022/05/15 11:27:28;;;;;;;8.48;3.72;;;20.60;51.80;;;;;;4992657;28;94937;-61
2022/05/15 11:29:58;;;;;;;20.92;4.43;;;20.70;52.20;;;;;;5012419;28;93111;-60
2022/05/15 11:32:55;;;;;;;10.35;3.53;;;20.70;51.50;;;;;;5012299;28;93832;-58
2022/05/15 11:35:23;;;;;;;13.40;3.67;;;20.70;50.40;;;;;;5012560;28;92639;-60
2022/05/15 11:38:07;;;;;;;12.93;3.83;;;20.70;50.70;;;;;;4993849;28;93192;-60
2022/05/15 11:40:44;;;;;;;10.75;3.80;;;20.80;49.70;;;;;;5012247;28;92406;-60
2022/05/15 11:43:29;;;;;;;15.27;3.60;;;20.70;49.20;;;;;;5011673;28;93826;-61
2022/05/15 11:46:02;;;;;;;10.55;3.70;;;20.80;48.90;;;;;;5012680;28;92517;-61
2022/05/15 11:48:52;;;;;;;9.90;3.42;;;20.80;48.50;;;;;;5012440;28;92795;-61
2022/05/15 11:51:28;;;;;;;10.95;3.20;;;20.80;48.80;;;;;;5001889;28;92797;-61
2022/05/15 11:54:04;;;;;;;12.38;3.47;;;20.80;49.40;;;;;;4993649;28;96237;-62
2022/05/15 11:56:45;;;;;;;11.85;3.28;;;20.80;49.80;;;;;;5012109;28;95465;-61
2022/05/15 11:59:27;;;;;;;9.98;3.40;;;20.70;50.00;;;;;;5012132;28;92500;-61
2022/05/15 12:01:57;;;;;;;9.88;3.45;;;20.70;50.30;;;;;;5011302;28;92547;-61
2022/05/15 12:04:26;;;;;;;12.93;3.83;;;20.70;50.50;;;;;;5011536;28;93025;-62
2022/05/15 12:06:57;;;;;;;9.30;3.20;;;20.70;50.70;;;;;;5010910;28;92793;-61
2022/05/15 12:09:31;;;;;;;11.60;3.20;;;20.70;50.80;;;;;;4992235;28;92912;-59
2022/05/15 12:12:30;;;;;;;12.32;4.00;;;20.70;51.00;;;;;;5009544;28;92185;-60
2022/05/15 12:15:16;;;;;;;8.50;3.28;;;20.70;51.10;;;;;;5010051;28;92987;-60
2022/05/15 12:17:52;;;;;;;8.75;3.47;;;20.60;51.30;;;;;;5009256;28;92926;-60
2022/05/15 12:20:40;;;;;;;9.10;3.30;;;20.60;51.40;;;;;;4991546;28;94903;-60
2022/05/15 12:23:17;;;;;;;8.52;3.17;;;20.60;51.40;;;;;;5008472;28;93198;-60
2022/05/15 12:26:08;;;;;;;11.23;3.30;;;20.60;51.50;;;;;;5010690;28;93233;-60
2022/05/15 12:28:57;;;;;;;10.85;3.55;;;20.60;51.60;;;;;;4992678;28;93148;-60
2022/05/15 12:31:43;;;;;;;10.60;3.58;;;20.60;51.70;;;;;;5010368;28;92624;-60
2022/05/15 12:34:14;;;;;;;8.20;2.95;;;20.60;51.90;;;;;;4991886;28;92561;-60
2022/05/15 12:37:02;;;;;;;8.30;3.25;;;20.60;51.90;;;;;;4991877;28;96160;-60
2022/05/15 12:39:32;;;;;;;9.98;3.40;;;20.70;52.10;;;;;;5010689;28;95360;-60
2022/05/15 12:42:01;;;;;;;8.77;3.28;;;20.60;52.10;;;;;;5009850;28;92500;-60
2022/05/15 12:44:33;;;;;;;7.07;2.80;;;20.60;52.10;;;;;;5009982;28;93075;-60
2022/05/15 12:47:01;;;;;;;6.97;3.03;;;20.70;52.20;;;;;;4990537;28;95671;-60
2022/05/15 12:49:42;;;;;;;6.70;3.00;;;20.60;52.20;;;;;;5009651;28;94979;-60
2022/05/15 12:52:14;;;;;;;7.38;2.78;;;20.60;52.30;;;;;;5009741;28;92536;-60
2022/05/15 12:54:42;;;;;;;7.50;2.80;;;20.70;52.40;;;;;;5009451;28;93054;-60
2022/05/15 12:57:13;;;;;;;5.80;2.67;;;20.70;52.60;;;;;;5010201;28;93486;-60
2022/05/15 12:59:47;;;;;;;7.75;3.00;;;20.60;52.60;;;;;;5010301;28;93169;-60
2022/05/15 13:02:30;;;;;;;7.13;2.58;;;20.70;52.60;;;;;;5008597;28;93124;-60
2022/05/15 13:04:59;;;;;;;8.43;3.35;;;20.60;52.60;;;;;;5009611;28;92334;-60
2022/05/15 13:07:28;;;;;;;5.68;2.78;;;20.70;52.70;;;;;;4966864;28;1217900;-60
2022/05/15 13:10:09;;;;;;;7.35;3.10;;;20.70;52.80;;;;;;5009909;28;93200;-61
2022/05/15 13:12:48;;;;;;;8.38;3.10;;;20.60;52.70;;;;;;5009943;28;95116;-60
2022/05/15 13:15:18;;;;;;;7.70;3.00;;;20.70;52.80;;;;;;5010865;28;92716;-60
2022/05/15 13:17:44;;;;;;;6.70;2.83;;;20.70;52.90;;;;;;4993322;28;93188;-60
2022/05/15 13:20:15;;;;;;;5.00;2.35;;;20.70;52.90;;;;;;5009673;28;92705;-60
2022/05/15 13:22:41;;;;;;;5.05;2.55;;;20.70;52.90;;;;;;5010288;28;92834;-60